sensor_id;sensor_type;location;lat;lon;timestamp;pressure;altitude;pressure_sealevel;temperature;humidity
75923;BME280;64602;47.542;19.090;2023-04-10T00:03:19;101094.87;;;4.92;78.78
75923;BME280;64602;47.542;19.090;2023-04-10T00:08:23;101099.91;;;5.02;78.89
75923;BME280;64602;47.542;19.090;2023-04-10T00:13:25;101102.84;;;5.07;78.65
75923;BME280;64602;47.542;19.090;2023-04-10T00:18:27;101090.00;;;5.09;78.70
75923;BME280;64602;47.542;19.090;2023-04-10T00:23:29;101091.25;;;5.07;78.72
75923;BME280;64602;47.542;19.090;2023-04-10T00:28:35;101081.94;;;5.03;79.04
75923;BME280;64602;47.542;19.090;2023-04-10T00:33:41;101076.91;;;4.93;79.11
75923;BME280;64602;47.542;19.090;2023-04-10T00:38:43;101087.25;;;4.96;79.02
75923;BME280;64602;47.542;19.090;2023-04-10T00:43:45;101062.78;;;4.84;79.35
75923;BME280;64602;47.542;19.090;2023-04-10T00:48:47;101057.56;;;4.83;79.74
75923;BME280;64602;47.542;19.090;2023-04-10T00:53:50;101076.91;;;4.93;79.65
75923;BME280;64602;47.542;19.090;2023-04-10T00:58:53;101055.97;;;4.88;79.55
75923;BME280;64602;47.542;19.090;2023-04-10T01:03:55;101067.00;;;5.00;79.60
75923;BME280;64602;47.542;19.090;2023-04-10T01:14:48;101063.63;;;4.91;80.24
75923;BME280;64602;47.542;19.090;2023-04-10T01:20:08;101054.75;;;4.91;80.38
75923;BME280;64602;47.542;19.090;2023-04-10T01:25:38;101066.59;;;5.03;80.29
75923;BME280;64602;47.542;19.090;2023-04-10T01:30:42;101071.53;;;5.00;80.33
75923;BME280;64602;47.542;19.090;2023-04-10T01:35:48;101049.12;;;4.86;80.64
75923;BME280;64602;47.542;19.090;2023-04-10T01:40:52;101042.91;;;4.85;80.85
75923;BME280;64602;47.542;19.090;2023-04-10T01:45:56;101037.50;;;4.79;81.06
75923;BME280;64602;47.542;19.090;2023-04-10T01:51:02;101044.31;;;4.75;81.29
75923;BME280;64602;47.542;19.090;2023-04-10T01:56:07;101040.50;;;4.62;81.59
75923;BME280;64602;47.542;19.090;2023-04-10T02:01:09;101046.66;;;4.56;81.62
75923;BME280;64602;47.542;19.090;2023-04-10T02:06:57;101045.34;;;4.45;82.06
75923;BME280;64602;47.542;19.090;2023-04-10T02:12:05;101053.59;;;4.44;82.36
75923;BME280;64602;47.542;19.090;2023-04-10T02:17:08;101045.59;;;4.22;82.88
75923;BME280;64602;47.542;19.090;2023-04-10T02:22:14;101042.84;;;4.16;83.19
75923;BME280;64602;47.542;19.090;2023-04-10T02:32:30;101051.88;;;4.08;83.35
75923;BME280;64602;47.542;19.090;2023-04-10T02:37:34;101050.19;;;4.07;83.54
75923;BME280;64602;47.542;19.090;2023-04-10T02:42:36;101053.75;;;4.14;83.88
75923;BME280;64602;47.542;19.090;2023-04-10T02:47:39;101045.72;;;4.14;84.01
75923;BME280;64602;47.542;19.090;2023-04-10T02:52:41;101027.16;;;3.98;84.28
75923;BME280;64602;47.542;19.090;2023-04-10T02:57:43;101041.75;;;4.10;84.41
75923;BME280;64602;47.542;19.090;2023-04-10T03:02:45;101034.97;;;4.14;84.15
75923;BME280;64602;47.542;19.090;2023-04-10T03:07:47;101039.00;;;4.03;84.13
75923;BME280;64602;47.542;19.090;2023-04-10T03:12:49;101008.84;;;3.80;84.35
75923;BME280;64602;47.542;19.090;2023-04-10T03:17:51;101030.75;;;3.83;84.58
75923;BME280;64602;47.542;19.090;2023-04-10T03:22:54;101026.56;;;3.74;84.66
75923;BME280;64602;47.542;19.090;2023-04-10T03:27:56;101031.13;;;3.80;84.49
75923;BME280;64602;47.542;19.090;2023-04-10T03:32:58;101039.75;;;3.76;84.54
75923;BME280;64602;47.542;19.090;2023-04-10T03:38:00;101024.94;;;3.58;84.89
75923;BME280;64602;47.542;19.090;2023-04-10T03:43:03;101041.13;;;3.65;85.15
75923;BME280;64602;47.542;19.090;2023-04-10T03:48:05;101033.25;;;3.63;85.47
75923;BME280;64602;47.542;19.090;2023-04-10T03:53:07;101048.25;;;3.58;85.57
75923;BME280;64602;47.542;19.090;2023-04-10T03:58:09;101034.03;;;3.57;85.33
75923;BME280;64602;47.542;19.090;2023-04-10T04:03:11;101047.34;;;3.51;85.64
75923;BME280;64602;47.542;19.090;2023-04-10T04:08:14;101048.09;;;3.45;85.76
75923;BME280;64602;47.542;19.090;2023-04-10T04:13:16;101040.28;;;3.28;85.72
75923;BME280;64602;47.542;19.090;2023-04-10T04:18:18;101041.28;;;3.27;85.77
75923;BME280;64602;47.542;19.090;2023-04-10T04:23:20;101050.56;;;3.25;85.85
75923;BME280;64602;47.542;19.090;2023-04-10T04:28:22;101066.81;;;3.38;85.82
75923;BME280;64602;47.542;19.090;2023-04-10T04:33:25;101041.69;;;3.24;85.76
75923;BME280;64602;47.542;19.090;2023-04-10T04:38:27;101062.84;;;3.34;85.69
75923;BME280;64602;47.542;19.090;2023-04-10T04:43:29;101066.56;;;3.33;85.64
75923;BME280;64602;47.542;19.090;2023-04-10T04:48:31;101064.88;;;3.32;85.66
75923;BME280;64602;47.542;19.090;2023-04-10T04:53:33;101085.97;;;3.35;85.75
75923;BME280;64602;47.542;19.090;2023-04-10T04:58:35;101066.81;;;3.38;85.57
75923;BME280;64602;47.542;19.090;2023-04-10T05:03:37;101077.63;;;3.45;85.53
75923;BME280;64602;47.542;19.090;2023-04-10T05:08:39;101091.03;;;3.59;85.10
75923;BME280;64602;47.542;19.090;2023-04-10T05:13:41;101089.56;;;3.57;85.19
75923;BME280;64602;47.542;19.090;2023-04-10T05:18:45;101084.53;;;3.54;85.34
75923;BME280;64602;47.542;19.090;2023-04-10T05:23:47;101094.66;;;3.73;85.34
75923;BME280;64602;47.542;19.090;2023-04-10T05:28:49;101094.87;;;3.72;85.06
75923;BME280;64602;47.542;19.090;2023-04-10T05:33:51;101101.22;;;3.85;84.93
75923;BME280;64602;47.542;19.090;2023-04-10T05:38:53;101101.16;;;4.00;84.77
75923;BME280;64602;47.542;19.090;2023-04-10T05:43:57;101105.19;;;4.11;84.53
75923;BME280;64602;47.542;19.090;2023-04-10T05:48:59;101100.16;;;4.23;84.04
75923;BME280;64602;47.542;19.090;2023-04-10T05:54:01;101104.16;;;4.34;83.71
75923;BME280;64602;47.542;19.090;2023-04-10T05:59:03;101091.09;;;4.52;83.03
75923;BME280;64602;47.542;19.090;2023-04-10T06:04:05;101097.09;;;4.82;82.41
75923;BME280;64602;47.542;19.090;2023-04-10T06:09:07;101107.59;;;5.05;81.47
75923;BME280;64602;47.542;19.090;2023-04-10T06:14:10;101098.81;;;5.25;80.60
75923;BME280;64602;47.542;19.090;2023-04-10T06:19:12;101104.28;;;5.45;80.12
75923;BME280;64602;47.542;19.090;2023-04-10T06:24:14;101107.25;;;5.63;79.68
75923;BME280;64602;47.542;19.090;2023-04-10T06:29:16;101120.56;;;5.85;79.24
75923;BME280;64602;47.542;19.090;2023-04-10T06:34:18;101108.66;;;6.07;78.93
75923;BME280;64602;47.542;19.090;2023-04-10T06:39:21;101108.47;;;6.29;78.00
75923;BME280;64602;47.542;19.090;2023-04-10T06:44:23;101107.44;;;6.50;77.06
75923;BME280;64602;47.542;19.090;2023-04-10T06:49:25;101104.09;;;6.74;75.92
75923;BME280;64602;47.542;19.090;2023-04-10T06:54:27;101090.19;;;6.91;75.55
75923;BME280;64602;47.542;19.090;2023-04-10T06:59:29;101091.16;;;7.16;74.34
75923;BME280;64602;47.542;19.090;2023-04-10T07:04:32;101090.63;;;7.53;73.96
75923;BME280;64602;47.542;19.090;2023-04-10T07:09:34;101097.34;;;7.82;72.62
75923;BME280;64602;47.542;19.090;2023-04-10T07:14:37;101101.53;;;8.09;70.70
75923;BME280;64602;47.542;19.090;2023-04-10T07:19:39;101097.00;;;8.35;70.13
75923;BME280;64602;47.542;19.090;2023-04-10T07:24:41;101091.91;;;8.52;68.73
75923;BME280;64602;47.542;19.090;2023-04-10T07:29:43;101083.50;;;8.78;67.67
75923;BME280;64602;47.542;19.090;2023-04-10T07:34:45;101081.75;;;9.09;66.60
75923;BME280;64602;47.542;19.090;2023-04-10T07:39:48;101070.47;;;9.31;64.83
75923;BME280;64602;47.542;19.090;2023-04-10T07:44:50;101063.50;;;9.53;64.11
75923;BME280;64602;47.542;19.090;2023-04-10T07:49:52;101076.63;;;9.87;62.43
75923;BME280;64602;47.542;19.090;2023-04-10T07:54:54;101069.38;;;10.11;61.67
75923;BME280;64602;47.542;19.090;2023-04-10T07:59:56;101063.47;;;10.44;61.45
75923;BME280;64602;47.542;19.090;2023-04-10T08:04:59;101080.47;;;10.86;59.36
75923;BME280;64602;47.542;19.090;2023-04-10T08:10:01;101056.22;;;11.08;57.67
75923;BME280;64602;47.542;19.090;2023-04-10T08:15:04;101060.19;;;11.29;56.19
75923;BME280;64602;47.542;19.090;2023-04-10T08:20:07;101059.06;;;11.54;56.17
75923;BME280;64602;47.542;19.090;2023-04-10T08:25:10;101068.25;;;11.93;53.68
75923;BME280;64602;47.542;19.090;2023-04-10T08:30:12;101062.12;;;12.15;52.65
75923;BME280;64602;47.542;19.090;2023-04-10T08:35:14;101062.94;;;12.49;51.67
75923;BME280;64602;47.542;19.090;2023-04-10T08:40:16;101060.94;;;12.78;50.29
75923;BME280;64602;47.542;19.090;2023-04-10T08:45:20;101043.09;;;13.10;50.10
75923;BME280;64602;47.542;19.090;2023-04-10T08:50:22;101046.56;;;13.44;48.39
75923;BME280;64602;47.542;19.090;2023-04-10T08:55:24;101040.09;;;13.77;47.05
75923;BME280;64602;47.542;19.090;2023-04-10T09:00:27;101032.88;;;13.93;45.74
75923;BME280;64602;47.542;19.090;2023-04-10T09:05:30;101038.66;;;14.29;45.22
75923;BME280;64602;47.542;19.090;2023-04-10T09:10:32;101026.78;;;14.45;43.68
75923;BME280;64602;47.542;19.090;2023-04-10T09:15:54;101020.44;;;14.77;43.66
75923;BME280;64602;47.542;19.090;2023-04-10T09:21:05;101032.16;;;15.20;42.67
75923;BME280;64602;47.542;19.090;2023-04-10T09:26:24;101025.72;;;15.57;40.67
75923;BME280;64602;47.542;19.090;2023-04-10T09:31:34;101024.44;;;16.00;38.99
75923;BME280;64602;47.542;19.090;2023-04-10T09:36:37;101027.19;;;16.21;38.93
75923;BME280;64602;47.542;19.090;2023-04-10T09:42:06;101017.03;;;16.47;38.92
75923;BME280;64602;47.542;19.090;2023-04-10T09:57:20;101006.34;;;17.41;36.83
75923;BME280;64602;47.542;19.090;2023-04-10T10:02:25;100988.31;;;17.20;36.40
75923;BME280;64602;47.542;19.090;2023-04-10T10:07:30;100990.91;;;17.50;36.38
75923;BME280;64602;47.542;19.090;2023-04-10T10:12:54;100997.59;;;17.34;35.08
75923;BME280;64602;47.542;19.090;2023-04-10T10:23:12;100989.34;;;16.54;36.68
75923;BME280;64602;47.542;19.090;2023-04-10T10:28:17;100980.63;;;16.16;37.18
75923;BME280;64602;47.542;19.090;2023-04-10T10:33:21;100977.88;;;15.80;38.48
75923;BME280;64602;47.542;19.090;2023-04-10T10:38:23;100977.88;;;15.70;38.65
75923;BME280;64602;47.542;19.090;2023-04-10T10:43:35;100979.44;;;15.55;39.17
75923;BME280;64602;47.542;19.090;2023-04-10T10:48:39;100975.59;;;15.41;39.09
75923;BME280;64602;47.542;19.090;2023-04-10T10:53:43;100964.09;;;15.34;39.50
75923;BME280;64602;47.542;19.090;2023-04-10T10:58:46;100953.41;;;15.22;40.29
75923;BME280;64602;47.542;19.090;2023-04-10T11:03:49;100956.94;;;15.07;40.71
75923;BME280;64602;47.542;19.090;2023-04-10T11:08:52;100961.84;;;15.10;40.42
75923;BME280;64602;47.542;19.090;2023-04-10T11:19:04;100970.16;;;14.73;42.92
75923;BME280;64602;47.542;19.090;2023-04-10T11:24:16;100957.84;;;14.70;43.08
75923;BME280;64602;47.542;19.090;2023-04-10T11:34:30;100963.59;;;14.74;43.22
75923;BME280;64602;47.542;19.090;2023-04-10T11:39:33;100954.03;;;14.71;43.15
75923;BME280;64602;47.542;19.090;2023-04-10T11:44:35;100956.25;;;14.80;43.98
75923;BME280;64602;47.542;19.090;2023-04-10T11:49:37;100959.53;;;14.77;43.62
75923;BME280;64602;47.542;19.090;2023-04-10T11:54:47;100965.87;;;14.98;44.90
75923;BME280;64602;47.542;19.090;2023-04-10T11:59:49;100957.94;;;14.91;45.52
75923;BME280;64602;47.542;19.090;2023-04-10T12:04:58;100950.88;;;15.00;46.81
75923;BME280;64602;47.542;19.090;2023-04-10T12:10:00;100964.62;;;15.31;46.17
75923;BME280;64602;47.542;19.090;2023-04-10T12:15:04;100949.03;;;15.31;45.76
75923;BME280;64602;47.542;19.090;2023-04-10T12:20:25;100957.56;;;15.40;45.17
75923;BME280;64602;47.542;19.090;2023-04-10T12:25:29;100942.19;;;15.24;44.79
75923;BME280;64602;47.542;19.090;2023-04-10T12:30:31;100943.22;;;15.02;45.37
75923;BME280;64602;47.542;19.090;2023-04-10T12:35:37;100925.50;;;15.20;46.28
75923;BME280;64602;47.542;19.090;2023-04-10T12:40:59;100910.56;;;15.79;43.39
75923;BME280;64602;47.542;19.090;2023-04-10T12:46:02;100906.16;;;16.03;42.31
75923;BME280;64602;47.542;19.090;2023-04-10T12:51:05;100895.69;;;17.51;41.04
75923;BME280;64602;47.542;19.090;2023-04-10T12:56:07;100882.91;;;17.70;38.60
75923;BME280;64602;47.542;19.090;2023-04-10T13:01:09;100861.56;;;18.21;38.01
75923;BME280;64602;47.542;19.090;2023-04-10T13:06:12;100876.09;;;19.31;37.07
75923;BME280;64602;47.542;19.090;2023-04-10T13:11:14;100870.38;;;19.79;36.00
75923;BME280;64602;47.542;19.090;2023-04-10T13:16:16;100852.16;;;19.13;35.23
75923;BME280;64602;47.542;19.090;2023-04-10T13:21:18;100850.72;;;19.67;35.14
75923;BME280;64602;47.542;19.090;2023-04-10T13:26:26;100834.63;;;20.35;33.70
75923;BME280;64602;47.542;19.090;2023-04-10T13:31:28;100825.69;;;20.79;33.26
75923;BME280;64602;47.542;19.090;2023-04-10T13:36:31;100817.16;;;21.26;32.54
75923;BME280;64602;47.542;19.090;2023-04-10T13:41:33;100824.28;;;21.63;32.21
75923;BME280;64602;47.542;19.090;2023-04-10T13:46:35;100802.34;;;21.98;30.89
75923;BME280;64602;47.542;19.090;2023-04-10T13:51:37;100806.25;;;21.97;30.08
75923;BME280;64602;47.542;19.090;2023-04-10T13:56:39;100791.03;;;22.17;29.77
75923;BME280;64602;47.542;19.090;2023-04-10T14:01:42;100787.09;;;22.67;29.84
75923;BME280;64602;47.542;19.090;2023-04-10T14:06:44;100771.16;;;22.72;28.95
75923;BME280;64602;47.542;19.090;2023-04-10T14:11:46;100762.84;;;22.81;28.01
75923;BME280;64602;47.542;19.090;2023-04-10T14:16:48;100749.16;;;22.93;27.70
75923;BME280;64602;47.542;19.090;2023-04-10T14:21:51;100750.13;;;22.89;27.60
75923;BME280;64602;47.542;19.090;2023-04-10T14:26:53;100735.66;;;22.57;28.74
75923;BME280;64602;47.542;19.090;2023-04-10T14:31:59;100725.59;;;22.70;28.68
75923;BME280;64602;47.542;19.090;2023-04-10T14:37:01;100731.28;;;22.56;28.20
75923;BME280;64602;47.542;19.090;2023-04-10T14:42:03;100713.22;;;22.67;27.22
75923;BME280;64602;47.542;19.090;2023-04-10T14:47:05;100703.09;;;22.71;27.85
75923;BME280;64602;47.542;19.090;2023-04-10T14:52:08;100708.81;;;22.66;27.64
75923;BME280;64602;47.542;19.090;2023-04-10T14:57:11;100692.22;;;21.74;27.59
75923;BME280;64602;47.542;19.090;2023-04-10T15:02:13;100692.91;;;21.88;28.50
75923;BME280;64602;47.542;19.090;2023-04-10T15:07:16;100680.59;;;22.03;30.34
75923;BME280;64602;47.542;19.090;2023-04-10T15:12:18;100670.78;;;21.88;28.57
75923;BME280;64602;47.542;19.090;2023-04-10T15:17:22;100669.75;;;21.67;29.10
75923;BME280;64602;47.542;19.090;2023-04-10T15:22:25;100655.00;;;21.09;29.83
75923;BME280;64602;47.542;19.090;2023-04-10T15:27:27;100642.62;;;20.16;30.14
75923;BME280;64602;47.542;19.090;2023-04-10T15:32:29;100647.44;;;20.11;31.50
75923;BME280;64602;47.542;19.090;2023-04-10T15:37:33;100628.00;;;19.52;32.10
75923;BME280;64602;47.542;19.090;2023-04-10T15:42:36;100622.59;;;19.33;33.03
75923;BME280;64602;47.542;19.090;2023-04-10T15:47:38;100629.00;;;19.28;32.96
75923;BME280;64602;47.542;19.090;2023-04-10T15:52:41;100636.94;;;19.16;33.38
75923;BME280;64602;47.542;19.090;2023-04-10T15:57:43;100634.03;;;18.79;33.76
75923;BME280;64602;47.542;19.090;2023-04-10T16:02:45;100619.06;;;18.15;34.73
75923;BME280;64602;47.542;19.090;2023-04-10T16:07:47;100621.78;;;17.96;34.70
75923;BME280;64602;47.542;19.090;2023-04-10T16:12:50;100610.47;;;17.79;34.93
75923;BME280;64602;47.542;19.090;2023-04-10T16:17:52;100618.31;;;17.90;35.86
75923;BME280;64602;47.542;19.090;2023-04-10T16:22:54;100598.28;;;17.66;36.06
75923;BME280;64602;47.542;19.090;2023-04-10T16:27:56;100603.72;;;17.47;36.34
75923;BME280;64602;47.542;19.090;2023-04-10T16:32:58;100599.56;;;17.01;36.94
75923;BME280;64602;47.542;19.090;2023-04-10T16:38:00;100593.66;;;16.55;37.36
75923;BME280;64602;47.542;19.090;2023-04-10T16:43:03;100596.87;;;16.33;38.04
75923;BME280;64602;47.542;19.090;2023-04-10T16:48:05;100588.56;;;16.03;38.62
75923;BME280;64602;47.542;19.090;2023-04-10T16:53:07;100591.66;;;15.92;39.06
75923;BME280;64602;47.542;19.090;2023-04-10T16:58:10;100590.13;;;15.75;39.55
75923;BME280;64602;47.542;19.090;2023-04-10T17:03:12;100580.06;;;15.50;39.92
75923;BME280;64602;47.542;19.090;2023-04-10T17:08:14;100574.12;;;15.33;40.59
75923;BME280;64602;47.542;19.090;2023-04-10T17:13:16;100585.66;;;15.20;40.98
75923;BME280;64602;47.542;19.090;2023-04-10T17:18:21;100590.63;;;15.07;41.25
75923;BME280;64602;47.542;19.090;2023-04-10T17:23:23;100583.22;;;14.98;41.65
75923;BME280;64602;47.542;19.090;2023-04-10T17:28:26;100597.47;;;14.89;41.83
75923;BME280;64602;47.542;19.090;2023-04-10T17:33:28;100587.38;;;14.74;42.30
75923;BME280;64602;47.542;19.090;2023-04-10T17:38:30;100587.94;;;14.66;42.79
75923;BME280;64602;47.542;19.090;2023-04-10T17:43:33;100589.03;;;14.60;43.19
75923;BME280;64602;47.542;19.090;2023-04-10T17:48:36;100604.88;;;14.58;43.90
75923;BME280;64602;47.542;19.090;2023-04-10T17:53:39;100615.22;;;14.51;44.43
75923;BME280;64602;47.542;19.090;2023-04-10T17:58:42;100624.22;;;14.46;44.65
75923;BME280;64602;47.542;19.090;2023-04-10T18:03:44;100608.12;;;14.35;45.19
75923;BME280;64602;47.542;19.090;2023-04-10T18:08:46;100610.81;;;14.29;45.59
75923;BME280;64602;47.542;19.090;2023-04-10T18:13:48;100617.13;;;14.30;46.50
75923;BME280;64602;47.542;19.090;2023-04-10T18:18:51;100632.41;;;14.26;47.73
75923;BME280;64602;47.542;19.090;2023-04-10T18:23:53;100624.69;;;14.02;50.90
75923;BME280;64602;47.542;19.090;2023-04-10T18:28:56;100615.69;;;13.97;51.54
75923;BME280;64602;47.542;19.090;2023-04-10T18:33:58;100621.69;;;13.88;52.71
75923;BME280;64602;47.542;19.090;2023-04-10T18:39:08;100622.47;;;13.84;50.70
75923;BME280;64602;47.542;19.090;2023-04-10T18:44:10;100613.66;;;13.66;51.17
75923;BME280;64602;47.542;19.090;2023-04-10T18:49:13;100649.44;;;13.75;51.77
75923;BME280;64602;47.542;19.090;2023-04-10T18:54:15;100645.88;;;13.64;54.29
75923;BME280;64602;47.542;19.090;2023-04-10T18:59:17;100655.34;;;13.52;57.38
75923;BME280;64602;47.542;19.090;2023-04-10T19:04:19;100654.44;;;13.36;57.94
75923;BME280;64602;47.542;19.090;2023-04-10T19:09:21;100658.44;;;13.23;59.02
75923;BME280;64602;47.542;19.090;2023-04-10T19:14:23;100655.97;;;13.21;60.11
75923;BME280;64602;47.542;19.090;2023-04-10T19:19:26;100643.31;;;13.05;61.37
75923;BME280;64602;47.542;19.090;2023-04-10T19:24:30;100639.06;;;12.82;62.23
75923;BME280;64602;47.542;19.090;2023-04-10T19:29:33;100640.56;;;12.63;63.38
75923;BME280;64602;47.542;19.090;2023-04-10T19:34:35;100649.53;;;12.63;63.59
75923;BME280;64602;47.542;19.090;2023-04-10T19:39:37;100638.44;;;12.43;64.85
75923;BME280;64602;47.542;19.090;2023-04-10T19:44:39;100637.53;;;12.32;64.79
75923;BME280;64602;47.542;19.090;2023-04-10T19:49:41;100645.94;;;12.30;65.20
75923;BME280;64602;47.542;19.090;2023-04-10T19:54:43;100637.75;;;12.25;65.43
75923;BME280;64602;47.542;19.090;2023-04-10T19:59:46;100629.84;;;12.24;65.69
75923;BME280;64602;47.542;19.090;2023-04-10T20:04:48;100633.84;;;12.16;66.92
75923;BME280;64602;47.542;19.090;2023-04-10T20:09:50;100633.50;;;12.07;66.41
75923;BME280;64602;47.542;19.090;2023-04-10T20:14:52;100626.09;;;12.03;66.59
75923;BME280;64602;47.542;19.090;2023-04-10T20:19:54;100631.38;;;11.87;69.33
75923;BME280;64602;47.542;19.090;2023-04-10T20:24:56;100630.03;;;11.90;70.10
75923;BME280;64602;47.542;19.090;2023-04-10T20:29:59;100611.62;;;11.75;71.09
75923;BME280;64602;47.542;19.090;2023-04-10T20:35:01;100626.47;;;11.67;71.17
75923;BME280;64602;47.542;19.090;2023-04-10T20:40:03;100618.59;;;11.44;72.96
75923;BME280;64602;47.542;19.090;2023-04-10T20:45:06;100594.47;;;11.08;72.96
75923;BME280;64602;47.542;19.090;2023-04-10T20:50:08;100593.63;;;11.08;72.97
75923;BME280;64602;47.542;19.090;2023-04-10T20:55:13;100607.19;;;10.86;74.71
75923;BME280;64602;47.542;19.090;2023-04-10T21:00:15;100590.81;;;10.47;75.48
75923;BME280;64602;47.542;19.090;2023-04-10T21:05:18;100613.34;;;10.47;76.11
75923;BME280;64602;47.542;19.090;2023-04-10T21:10:20;100612.03;;;10.21;77.33
75923;BME280;64602;47.542;19.090;2023-04-10T21:15:22;100586.63;;;10.11;77.33
75923;BME280;64602;47.542;19.090;2023-04-10T21:20:24;100596.59;;;10.05;78.07
75923;BME280;64602;47.542;19.090;2023-04-10T21:25:26;100594.47;;;9.78;78.85
75923;BME280;64602;47.542;19.090;2023-04-10T21:30:28;100585.75;;;9.76;79.37
75923;BME280;64602;47.542;19.090;2023-04-10T21:35:30;100591.97;;;9.77;80.01
75923;BME280;64602;47.542;19.090;2023-04-10T21:40:32;100590.66;;;9.51;80.88
75923;BME280;64602;47.542;19.090;2023-04-10T21:45:35;100597.56;;;9.58;80.53
75923;BME280;64602;47.542;19.090;2023-04-10T21:50:39;100595.38;;;9.44;81.15
75923;BME280;64602;47.542;19.090;2023-04-10T21:55:41;100570.81;;;9.22;81.58
75923;BME280;64602;47.542;19.090;2023-04-10T22:00:43;100586.84;;;9.23;81.59
75923;BME280;64602;47.542;19.090;2023-04-10T22:05:48;100579.31;;;9.13;82.05
75923;BME280;64602;47.542;19.090;2023-04-10T22:10:51;100553.91;;;8.91;82.10
75923;BME280;64602;47.542;19.090;2023-04-10T22:15:53;100563.06;;;9.02;82.51
75923;BME280;64602;47.542;19.090;2023-04-10T22:20:55;100557.69;;;8.78;82.88
75923;BME280;64602;47.542;19.090;2023-04-10T22:26:00;100568.97;;;8.87;82.61
75923;BME280;64602;47.542;19.090;2023-04-10T22:31:02;100574.72;;;8.78;82.89
75923;BME280;64602;47.542;19.090;2023-04-10T22:36:05;100551.44;;;8.54;83.08
75923;BME280;64602;47.542;19.090;2023-04-10T22:41:07;100555.44;;;8.63;83.20
75923;BME280;64602;47.542;19.090;2023-04-10T22:46:11;100550.41;;;8.55;83.70
75923;BME280;64602;47.542;19.090;2023-04-10T22:51:13;100552.13;;;8.38;84.16
75923;BME280;64602;47.542;19.090;2023-04-10T22:56:16;100553.62;;;8.33;84.05
75923;BME280;64602;47.542;19.090;2023-04-10T23:01:20;100554.66;;;8.32;84.42
75923;BME280;64602;47.542;19.090;2023-04-10T23:06:22;100538.19;;;8.10;84.45
75923;BME280;64602;47.542;19.090;2023-04-10T23:11:24;100533.94;;;8.03;84.47
75923;BME280;64602;47.542;19.090;2023-04-10T23:16:27;100545.13;;;8.06;84.38
75923;BME280;64602;47.542;19.090;2023-04-10T23:21:29;100544.31;;;8.06;84.27
75923;BME280;64602;47.542;19.090;2023-04-10T23:26:32;100526.25;;;7.88;84.46
75923;BME280;64602;47.542;19.090;2023-04-10T23:31:34;100530.06;;;7.99;84.44
75923;BME280;64602;47.542;19.090;2023-04-10T23:36:36;100523.34;;;7.89;84.07
75923;BME280;64602;47.542;19.090;2023-04-10T23:41:38;100508.84;;;7.72;83.74
75923;BME280;64602;47.542;19.090;2023-04-10T23:46:40;100506.44;;;7.64;83.95
75923;BME280;64602;47.542;19.090;2023-04-10T23:51:44;100513.94;;;7.62;84.32
75923;BME280;64602;47.542;19.090;2023-04-10T23:56:46;100512.31;;;7.61;84.58
